Time;durP1;ratioP1;P1;durP2;ratioP2;P2;SDS_P1;SDS_P2;PMS_P1;PMS_P2;Temp;Humidity;BMP_temperature;BMP_pressure;BME280_temperature;BME280_humidity;BME280_pressure;Samples;Min_cycle;Max_cycle;Signal;HPM_P1;HPM_P2
2021/12/04 00:02:05;;;;;;;2.72;2.20;;;11.80;65.70;;;;;;1882977;76;21084;-41
2021/12/04 00:04:35;;;;;;;3.45;2.10;;;11.80;65.70;;;;;;1882055;76;21087;-42
2021/12/04 00:07:07;;;;;;;2.62;2.15;;;11.90;65.60;;;;;;1883140;75;21010;-41
2021/12/04 00:09:37;;;;;;;3.10;2.02;;;11.90;65.40;;;;;;1882861;76;21025;-41
2021/12/04 00:12:08;;;;;;;3.60;2.40;;;11.90;65.40;;;;;;1882951;75;21091;-41
2021/12/04 00:14:38;;;;;;;4.03;2.02;;;12.00;65.50;;;;;;1882869;75;21096;-42
2021/12/04 00:17:08;;;;;;;3.33;2.17;;;12.10;65.70;;;;;;1883018;76;21029;-41
2021/12/04 00:19:37;;;;;;;3.00;2.00;;;12.10;65.90;;;;;;1877500;75;21062;-41
2021/12/04 00:22:07;;;;;;;2.95;2.40;;;12.00;66.20;;;;;;1872789;75;21046;-41
2021/12/04 00:24:36;;;;;;;3.42;2.15;;;12.00;66.50;;;;;;1872782;75;21027;-41
2021/12/04 00:27:06;;;;;;;2.90;2.10;;;12.00;67.40;;;;;;1872912;77;21089;-42
2021/12/04 00:29:35;;;;;;;2.70;2.08;;;11.90;68.30;;;;;;1872776;75;21104;-41
2021/12/04 00:32:15;;;;;;;3.65;2.25;;;11.80;68.70;;;;;;1872873;75;21011;-41
2021/12/04 00:34:46;;;;;;;3.40;2.37;;;11.80;68.80;;;;;;1872809;75;21108;-41
2021/12/04 00:51:06;;;;;;;4.60;2.37;;;11.60;70.30;;;;;;1872904;77;21043;-40
2021/12/04 00:53:35;;;;;;;4.55;2.40;;;11.60;70.30;;;;;;1872737;75;21047;-42
2021/12/04 00:56:05;;;;;;;3.33;2.08;;;11.70;70.10;;;;;;1872729;75;21094;-41
2021/12/04 00:58:34;;;;;;;4.12;2.65;;;11.70;70.10;;;;;;1872768;75;21031;-41
2021/12/04 01:01:04;;;;;;;3.22;2.35;;;11.70;70.00;;;;;;1872815;76;21058;-41
2021/12/04 01:03:35;;;;;;;4.90;2.17;;;11.70;69.90;;;;;;1872899;75;21098;-41
2021/12/04 01:06:07;;;;;;;2.77;2.00;;;11.70;69.80;;;;;;1872309;75;21089;-41
2021/12/04 01:08:36;;;;;;;5.70;2.70;;;11.70;69.80;;;;;;1872847;77;21003;-40
2021/12/04 01:11:06;;;;;;;5.40;2.20;;;11.70;69.90;;;;;;1872962;75;21035;-41
2021/12/04 01:13:35;;;;;;;4.03;2.30;;;11.70;69.90;;;;;;1872990;76;21106;-40
2021/12/04 01:16:05;;;;;;;2.90;2.20;;;11.70;70.00;;;;;;1872838;75;21085;-40
2021/12/04 01:18:34;;;;;;;4.03;2.58;;;11.70;70.10;;;;;;1872880;76;21100;-41
2021/12/04 01:21:04;;;;;;;2.22;2.00;;;11.70;70.50;;;;;;1872943;76;21062;-40
2021/12/04 01:23:33;;;;;;;4.15;2.50;;;11.70;70.40;;;;;;1872786;76;21136;-41
2021/12/04 01:26:03;;;;;;;5.55;2.72;;;11.70;70.40;;;;;;1872797;75;21114;-41
2021/12/04 01:28:33;;;;;;;3.70;2.55;;;11.70;70.50;;;;;;1872737;75;20999;-41
2021/12/04 01:31:02;;;;;;;3.58;2.50;;;11.70;70.60;;;;;;1872754;76;21074;-41
2021/12/04 01:33:32;;;;;;;4.72;2.47;;;11.70;70.70;;;;;;1872772;75;21031;-42
2021/12/04 01:36:02;;;;;;;4.12;2.22;;;11.70;70.70;;;;;;1872770;75;21027;-41
2021/12/04 01:38:31;;;;;;;5.15;2.50;;;11.70;70.90;;;;;;1872914;75;21027;-41
2021/12/04 01:41:01;;;;;;;3.77;2.27;;;11.70;70.70;;;;;;1872789;75;21007;-43
2021/12/04 01:43:30;;;;;;;3.77;2.35;;;11.70;70.70;;;;;;1872803;77;21031;-41
2021/12/04 01:46:00;;;;;;;3.35;2.40;;;11.70;70.70;;;;;;1872714;75;21031;-40
2021/12/04 01:48:29;;;;;;;3.72;2.50;;;11.70;70.70;;;;;;1872750;75;21081;-41
2021/12/04 01:50:59;;;;;;;4.78;2.12;;;11.70;70.60;;;;;;1872786;75;21031;-40
2021/12/04 01:53:29;;;;;;;4.33;2.05;;;11.70;70.60;;;;;;1872783;75;21003;-41
2021/12/04 01:56:00;;;;;;;2.72;2.30;;;11.70;70.50;;;;;;1872833;75;21026;-40
2021/12/04 01:58:31;;;;;;;3.90;2.20;;;11.70;70.40;;;;;;1872719;75;21058;-40
2021/12/04 02:01:01;;;;;;;5.15;2.10;;;11.70;70.40;;;;;;1872770;75;21081;-41
2021/12/04 02:03:30;;;;;;;2.20;1.77;;;11.70;70.20;;;;;;1872836;77;21097;-40
2021/12/04 02:05:59;;;;;;;3.77;2.40;;;11.70;70.20;;;;;;1872707;75;21011;-40
2021/12/04 02:08:29;;;;;;;2.58;2.17;;;11.70;70.00;;;;;;1872852;75;21030;-40
2021/12/04 02:11:00;;;;;;;5.70;2.05;;;11.70;69.80;;;;;;1872798;77;21059;-42
2021/12/04 02:13:30;;;;;;;2.80;1.90;;;11.70;69.70;;;;;;1872891;76;21023;-40
2021/12/04 02:16:03;;;;;;;4.87;1.95;;;11.70;69.70;;;;;;1872743;75;21097;-40
2021/12/04 02:18:31;;;;;;;2.12;1.92;;;11.70;69.50;;;;;;1872671;75;21055;-41
2021/12/04 02:21:00;;;;;;;6.75;1.92;;;11.70;69.40;;;;;;1879150;75;21049;-41
2021/12/04 02:23:30;;;;;;;3.02;1.90;;;11.70;69.30;;;;;;1882768;75;21026;-40
2021/12/04 02:25:59;;;;;;;5.55;1.67;;;11.80;69.20;;;;;;1882800;75;21021;-41
2021/12/04 02:28:29;;;;;;;3.30;1.90;;;11.80;68.70;;;;;;1882792;75;21030;-40
2021/12/04 02:30:59;;;;;;;2.30;1.77;;;11.80;68.80;;;;;;1882878;75;21025;-41
2021/12/04 02:33:29;;;;;;;6.45;2.10;;;11.80;68.70;;;;;;1882793;75;21002;-41
2021/12/04 02:35:58;;;;;;;3.65;2.12;;;11.80;68.50;;;;;;1882751;75;21041;-42
2021/12/04 02:38:28;;;;;;;2.20;1.65;;;11.80;68.50;;;;;;1882894;76;21092;-41
2021/12/04 02:41:05;;;;;;;3.85;1.70;;;11.80;68.50;;;;;;1882744;76;21127;-43
2021/12/04 02:43:35;;;;;;;3.77;2.33;;;11.80;68.30;;;;;;1881829;75;21018;-41
2021/12/04 02:46:05;;;;;;;5.70;1.72;;;11.80;68.30;;;;;;1883040;75;21014;-40
2021/12/04 02:48:34;;;;;;;2.33;1.90;;;11.80;68.10;;;;;;1882793;75;21026;-41
2021/12/04 02:51:04;;;;;;;6.75;2.62;;;11.80;68.20;;;;;;1882824;76;21075;-40
2021/12/04 02:53:34;;;;;;;3.72;2.33;;;11.90;68.10;;;;;;1882800;75;21080;-41
2021/12/04 02:56:05;;;;;;;2.70;1.80;;;11.90;68.10;;;;;;1882789;76;21092;-42
2021/12/04 02:58:35;;;;;;;4.35;2.50;;;11.90;68.20;;;;;;1882882;76;21083;-41
2021/12/04 03:01:05;;;;;;;3.75;1.82;;;11.90;68.30;;;;;;1882969;75;21119;-40
2021/12/04 03:03:35;;;;;;;2.20;2.00;;;11.90;68.20;;;;;;1882928;76;21049;-41
2021/12/04 03:06:04;;;;;;;2.35;1.70;;;11.90;68.30;;;;;;1882923;75;21046;-42
2021/12/04 03:08:34;;;;;;;4.62;2.08;;;11.90;68.40;;;;;;1882792;75;21077;-40
2021/12/04 03:11:03;;;;;;;5.42;1.95;;;11.90;68.50;;;;;;1882857;76;21033;-40
2021/12/04 03:13:32;;;;;;;2.80;1.72;;;11.80;68.60;;;;;;1882783;76;21084;-41
2021/12/04 03:16:02;;;;;;;6.20;2.17;;;11.80;68.70;;;;;;1882883;76;21021;-41
2021/12/04 03:18:31;;;;;;;3.58;1.77;;;11.80;68.70;;;;;;1882833;75;21005;-41
2021/12/04 03:21:03;;;;;;;5.53;2.40;;;11.80;68.80;;;;;;1886051;75;21074;-41
2021/12/04 03:23:40;;;;;;;3.72;2.12;;;11.80;68.80;;;;;;1891621;74;21092;-40
2021/12/04 03:26:08;;;;;;;2.42;1.87;;;11.80;68.80;;;;;;1890533;74;21145;-41
2021/12/04 03:28:33;;;;;;;5.65;2.37;;;11.80;68.60;;;;;;1891001;75;21030;-40
2021/12/04 03:31:12;;;;;;;2.45;1.90;;;11.70;68.50;;;;;;1891374;76;21030;-40
2021/12/04 03:41:58;;;;;;;2.75;1.92;;;11.70;68.20;;;;;;1891473;74;21085;-41
2021/12/04 03:44:28;;;;;;;4.95;2.05;;;11.70;68.40;;;;;;1891390;74;21034;-40
2021/12/04 03:46:57;;;;;;;2.33;1.90;;;11.70;68.40;;;;;;1891358;75;21026;-40
2021/12/04 03:49:26;;;;;;;10.88;3.25;;;11.60;68.40;;;;;;1891351;74;21070;-40
2021/12/04 03:51:56;;;;;;;2.85;1.90;;;11.70;68.50;;;;;;1891270;74;21073;-41
2021/12/04 03:54:25;;;;;;;3.55;1.90;;;11.60;68.60;;;;;;1891420;74;21049;-41
2021/12/04 03:57:03;;;;;;;2.83;2.10;;;11.60;68.80;;;;;;1891377;74;21026;-40
2021/12/04 03:59:25;;;;;;;3.55;1.95;;;11.50;68.80;;;;;;1890411;75;21112;-41
2021/12/04 04:01:55;;;;;;;2.98;1.80;;;11.50;68.80;;;;;;1891448;76;21026;-40
2021/12/04 04:04:24;;;;;;;3.10;2.12;;;11.50;68.90;;;;;;1891399;74;21027;-41
2021/12/04 04:06:54;;;;;;;3.67;2.30;;;11.50;68.90;;;;;;1891442;76;21537;-41
2021/12/04 04:09:23;;;;;;;7.40;2.58;;;11.50;69.20;;;;;;1891362;76;21087;-40
2021/12/04 04:11:52;;;;;;;3.17;2.30;;;11.40;69.20;;;;;;1891460;74;21128;-40
2021/12/04 04:14:23;;;;;;;5.47;2.12;;;11.40;69.20;;;;;;1891368;75;21034;-41
2021/12/04 04:16:54;;;;;;;2.47;1.95;;;11.30;69.10;;;;;;1891485;76;21042;-41
2021/12/04 04:19:24;;;;;;;8.80;2.55;;;11.30;69.20;;;;;;1891459;74;21002;-41
2021/12/04 04:21:59;;;;;;;4.40;2.35;;;11.30;69.30;;;;;;1887163;74;21033;-40
2021/12/04 04:24:27;;;;;;;5.85;2.45;;;11.30;69.20;;;;;;1881673;76;21456;-40
2021/12/04 04:26:57;;;;;;;3.67;1.80;;;11.30;68.80;;;;;;1882806;75;21083;-40
2021/12/04 04:29:26;;;;;;;4.22;1.62;;;11.30;68.80;;;;;;1882807;76;21079;-40
2021/12/04 04:31:56;;;;;;;2.92;2.08;;;11.30;68.30;;;;;;1882794;76;21065;-40
2021/12/04 04:34:32;;;;;;;6.65;4.12;;;11.40;68.30;;;;;;1882831;76;21069;-40
2021/12/04 04:37:11;;;;;;;4.22;1.87;;;11.40;67.90;;;;;;1882964;75;21115;-41
2021/12/04 04:40:08;;;;;;;4.05;2.60;;;11.50;67.60;;;;;;1881411;76;21107;-41
2021/12/04 04:59:02;;;;;;;9.85;3.47;;;11.70;67.30;;;;;;1882867;75;21034;-41
2021/12/04 05:12:45;;;;;;;4.47;1.92;;;11.90;64.90;;;;;;1882924;76;21053;-41
2021/12/04 05:15:02;;;;;;;5.33;2.50;;;11.90;65.10;;;;;;1879225;76;21088;-41
2021/12/04 05:20:01;;;;;;;3.87;1.67;;;11.90;64.00;;;;;;1882809;75;21570;-42
2021/12/04 05:22:32;;;;;;;8.08;2.62;;;12.00;64.60;;;;;;1877522;75;21128;-42
2021/12/04 05:25:01;;;;;;;6.78;3.67;;;12.00;64.70;;;;;;1872931;75;21071;-41
2021/12/04 05:27:31;;;;;;;5.25;1.65;;;12.00;65.00;;;;;;1872881;77;21023;-41
2021/12/04 05:30:00;;;;;;;6.78;2.30;;;11.90;64.80;;;;;;1872798;75;21074;-41
2021/12/04 05:32:30;;;;;;;4.87;2.08;;;11.90;64.50;;;;;;1872813;75;21027;-42
2021/12/04 05:34:59;;;;;;;9.80;3.67;;;11.90;64.90;;;;;;1872682;75;21081;-41
2021/12/04 05:37:29;;;;;;;5.58;2.45;;;11.90;64.90;;;;;;1872803;75;21023;-41
2021/12/04 05:39:58;;;;;;;7.40;2.65;;;11.90;65.00;;;;;;1872751;76;21034;-41
2021/12/04 05:42:29;;;;;;;5.72;2.45;;;11.90;65.10;;;;;;1872834;75;21026;-43
2021/12/04 05:44:58;;;;;;;5.05;1.70;;;11.80;64.90;;;;;;1872851;75;21051;-41
2021/12/04 05:47:44;;;;;;;2.95;1.87;;;11.90;64.80;;;;;;1872651;75;21007;-43
2021/12/04 05:53:03;;;;;;;6.55;2.17;;;11.90;64.60;;;;;;1872942;75;21023;-41
2021/12/04 05:55:15;;;;;;;4.12;1.80;;;12.00;64.60;;;;;;1868811;75;21003;-42
2021/12/04 05:57:43;;;;;;;3.65;2.05;;;12.00;65.00;;;;;;1872693;75;21489;-42
2021/12/04 06:00:21;;;;;;;4.80;2.95;;;12.00;64.70;;;;;;1872647;77;21132;-42
2021/12/04 06:02:50;;;;;;;3.62;1.90;;;12.10;64.70;;;;;;1872187;75;21043;-41
2021/12/04 06:05:20;;;;;;;4.75;2.80;;;12.20;64.50;;;;;;1872837;75;21023;-41
2021/12/04 06:07:49;;;;;;;6.62;2.67;;;12.20;64.40;;;;;;1872769;76;21007;-41
2021/12/04 06:10:18;;;;;;;5.85;1.95;;;12.30;64.30;;;;;;1872732;77;21023;-42
2021/12/04 06:12:48;;;;;;;4.70;1.82;;;12.30;64.10;;;;;;1872672;75;21007;-42
2021/12/04 06:15:17;;;;;;;2.08;1.75;;;12.40;64.30;;;;;;1872732;76;21031;-42
2021/12/04 06:17:49;;;;;;;3.08;1.87;;;12.50;63.70;;;;;;1872707;77;21163;-43
2021/12/04 06:23:04;;;;;;;5.35;3.58;;;12.70;63.90;;;;;;1879575;74;21115;-42
2021/12/04 06:25:34;;;;;;;5.55;3.12;;;12.70;63.90;;;;;;1882810;75;21021;-42
2021/12/04 06:28:06;;;;;;;5.65;3.27;;;12.70;63.90;;;;;;1882838;76;21026;-42
2021/12/04 06:30:39;;;;;;;6.40;2.72;;;12.80;63.90;;;;;;1882781;75;21067;-43
2021/12/04 06:33:11;;;;;;;6.78;3.15;;;12.80;64.10;;;;;;1882835;76;21436;-42
2021/12/04 06:35:41;;;;;;;6.60;2.98;;;12.80;64.20;;;;;;1882900;75;20989;-42
2021/12/04 06:38:12;;;;;;;5.45;2.85;;;12.80;64.20;;;;;;1882931;75;21026;-43
2021/12/04 06:40:41;;;;;;;9.25;2.67;;;12.90;64.40;;;;;;1882719;75;21014;-41
2021/12/04 06:43:11;;;;;;;11.90;3.50;;;12.90;64.60;;;;;;1882768;75;20998;-42
2021/12/04 06:45:50;;;;;;;2.77;1.77;;;12.90;64.80;;;;;;1882689;75;21083;-42
2021/12/04 06:48:16;;;;;;;4.78;2.27;;;12.90;64.90;;;;;;1880641;75;21053;-42
2021/12/04 06:53:28;;;;;;;6.00;2.20;;;12.90;65.30;;;;;;1882950;75;21092;-41
2021/12/04 06:55:55;;;;;;;4.83;1.82;;;13.00;65.40;;;;;;1882558;75;21037;-41
2021/12/04 06:58:27;;;;;;;3.92;2.10;;;13.00;65.40;;;;;;1882920;76;21010;-41
2021/12/04 07:00:57;;;;;;;8.53;2.87;;;13.00;65.40;;;;;;1882676;75;21088;-41
2021/12/04 07:03:26;;;;;;;7.25;2.20;;;13.00;65.50;;;;;;1882886;76;21030;-41
2021/12/04 07:05:55;;;;;;;5.92;2.12;;;13.00;65.60;;;;;;1882781;75;21021;-41
2021/12/04 07:08:25;;;;;;;4.50;2.10;;;13.00;65.70;;;;;;1882800;76;21025;-41
2021/12/04 07:10:54;;;;;;;3.58;1.35;;;13.10;65.90;;;;;;1882715;75;21021;-42
2021/12/04 07:13:23;;;;;;;8.80;2.60;;;13.10;65.90;;;;;;1882830;76;21163;-43
2021/12/04 07:16:01;;;;;;;2.95;1.82;;;13.20;66.00;;;;;;1882726;75;21084;-41
2021/12/04 07:18:24;;;;;;;13.85;3.15;;;13.20;66.40;;;;;;1881163;75;21084;-42
2021/12/04 07:20:53;;;;;;;3.37;2.17;;;13.30;65.90;;;;;;1882761;76;21046;-41
2021/12/04 07:23:23;;;;;;;5.75;2.70;;;13.30;65.80;;;;;;1884332;75;21062;-43
2021/12/04 07:25:53;;;;;;;4.55;2.50;;;13.40;65.60;;;;;;1891517;75;21038;-42
2021/12/04 07:28:22;;;;;;;3.95;2.00;;;13.40;65.60;;;;;;1891501;74;21030;-42
2021/12/04 07:30:52;;;;;;;15.90;3.77;;;13.50;65.30;;;;;;1891400;75;21010;-42
2021/12/04 07:33:21;;;;;;;19.55;3.98;;;13.50;65.10;;;;;;1891464;74;21026;-41
2021/12/04 07:35:51;;;;;;;6.28;2.90;;;13.60;65.40;;;;;;1891326;74;21007;-41
2021/12/04 07:38:20;;;;;;;7.15;3.02;;;13.60;65.20;;;;;;1891417;76;21030;-42
2021/12/04 07:40:50;;;;;;;5.22;2.67;;;13.60;65.10;;;;;;1891395;74;21030;-41
2021/12/04 07:43:20;;;;;;;5.87;2.70;;;13.70;64.90;;;;;;1891365;74;21125;-41
2021/12/04 07:45:49;;;;;;;4.67;2.80;;;13.70;64.40;;;;;;1891340;74;21002;-41
2021/12/04 07:48:19;;;;;;;7.00;2.77;;;13.80;64.80;;;;;;1891400;74;21080;-42
2021/12/04 07:50:48;;;;;;;5.35;2.65;;;13.80;64.70;;;;;;1891339;75;21007;-41
2021/12/04 07:53:18;;;;;;;3.52;2.02;;;13.80;64.80;;;;;;1891491;76;21034;-41
2021/12/04 07:55:47;;;;;;;4.72;2.22;;;13.80;64.80;;;;;;1891338;76;21119;-41
2021/12/04 07:58:16;;;;;;;4.80;2.58;;;13.80;64.60;;;;;;1891504;75;21073;-41
2021/12/04 08:00:46;;;;;;;5.28;2.83;;;13.90;64.60;;;;;;1891505;74;21409;-41
2021/12/04 08:03:15;;;;;;;7.03;2.62;;;13.90;64.60;;;;;;1891639;74;21003;-42
2021/12/04 08:05:46;;;;;;;3.70;2.40;;;13.90;64.90;;;;;;1891504;74;21038;-42
2021/12/04 08:08:15;;;;;;;3.90;2.90;;;14.00;64.90;;;;;;1891630;74;21038;-42
2021/12/04 08:10:45;;;;;;;4.65;2.67;;;13.90;64.50;;;;;;1891421;75;21022;-43
2021/12/04 08:13:15;;;;;;;5.70;3.00;;;14.00;64.70;;;;;;1891533;75;21034;-41
2021/12/04 08:15:44;;;;;;;4.12;2.87;;;14.00;64.70;;;;;;1891388;76;21095;-42
2021/12/04 08:18:13;;;;;;;3.85;2.47;;;14.10;64.70;;;;;;1891569;74;21006;-41
2021/12/04 08:20:45;;;;;;;4.60;2.50;;;14.10;64.80;;;;;;1891480;74;21002;-43
2021/12/04 08:23:14;;;;;;;5.42;2.77;;;14.10;64.70;;;;;;1891519;74;21476;-42
2021/12/04 08:25:45;;;;;;;6.25;2.55;;;14.10;64.80;;;;;;1891298;74;21066;-41
2021/12/04 08:28:15;;;;;;;3.22;2.30;;;14.10;64.60;;;;;;1891558;74;21139;-41
2021/12/04 08:30:45;;;;;;;12.73;4.97;;;14.20;65.20;;;;;;1891369;74;21034;-41
2021/12/04 08:33:14;;;;;;;10.05;4.97;;;14.10;64.30;;;;;;1891445;74;21026;-41
2021/12/04 08:35:44;;;;;;;9.88;3.95;;;14.10;64.40;;;;;;1891380;75;21019;-41
2021/12/04 08:38:16;;;;;;;5.80;3.45;;;14.10;64.30;;;;;;1891409;74;21070;-41
2021/12/04 08:40:45;;;;;;;4.42;2.45;;;14.10;64.20;;;;;;1891544;76;20999;-41
2021/12/04 08:43:15;;;;;;;3.40;2.50;;;14.10;64.00;;;;;;1891473;74;21026;-41
2021/12/04 08:45:45;;;;;;;3.92;2.62;;;14.10;64.20;;;;;;1891554;74;21026;-41
2021/12/04 08:48:14;;;;;;;6.55;3.10;;;14.00;64.30;;;;;;1891551;74;21456;-41
2021/12/04 08:50:44;;;;;;;8.23;3.10;;;14.00;64.20;;;;;;1891274;74;21026;-42
2021/12/04 08:53:14;;;;;;;6.87;3.60;;;14.00;64.10;;;;;;1891500;74;21026;-42
2021/12/04 08:55:43;;;;;;;4.47;3.67;;;14.00;63.90;;;;;;1891489;74;21030;-41
2021/12/04 08:58:15;;;;;;;9.15;3.87;;;14.00;63.80;;;;;;1891636;74;21516;-41
2021/12/04 09:00:50;;;;;;;3.98;2.87;;;14.00;63.80;;;;;;1891422;74;21464;-41
2021/12/04 09:03:22;;;;;;;4.55;2.83;;;14.10;63.40;;;;;;1891478;74;20998;-42
2021/12/04 09:05:52;;;;;;;8.48;2.83;;;14.10;63.30;;;;;;1891613;74;21504;-41
2021/12/04 09:08:24;;;;;;;5.58;2.50;;;14.10;63.00;;;;;;1891559;75;21030;-41
2021/12/04 09:10:55;;;;;;;4.17;2.35;;;14.10;63.20;;;;;;1891564;75;21539;-41
2021/12/04 09:13:25;;;;;;;5.17;2.67;;;14.20;62.80;;;;;;1891498;74;21026;-42
2021/12/04 09:15:54;;;;;;;9.20;2.55;;;14.20;62.50;;;;;;1891447;74;21019;-43
2021/12/04 09:18:24;;;;;;;4.58;2.25;;;14.30;62.40;;;;;;1891427;75;21100;-41
2021/12/04 09:20:55;;;;;;;6.22;2.87;;;14.30;61.90;;;;;;1891400;75;21080;-43
2021/12/04 09:23:33;;;;;;;11.35;2.55;;;14.40;62.00;;;;;;1891545;76;21002;-41
2021/12/04 09:25:59;;;;;;;9.60;2.95;;;14.50;62.10;;;;;;1876262;74;21521;-41
2021/12/04 09:28:52;;;;;;;11.15;3.70;;;14.50;61.00;;;;;;1872643;75;21022;-41
2021/12/04 09:31:24;;;;;;;6.10;2.58;;;14.60;60.80;;;;;;1864588;76;21047;-41
2021/12/04 09:34:12;;;;;;;3.40;2.33;;;14.60;60.60;;;;;;1871663;75;21092;-41
2021/12/04 10:12:32;;;;;;;3.35;2.27;;;15.20;54.30;;;;;;1872644;75;21047;-41
2021/12/04 10:20:58;;;;;;;3.80;2.17;;;15.40;53.40;;;;;;1872869;76;21051;-40
2021/12/04 10:32:26;;;;;;;2.83;2.25;;;15.60;52.70;;;;;;1872847;76;21117;-41
2021/12/04 10:34:41;;;;;;;6.03;2.35;;;15.60;51.20;;;;;;1871230;76;21055;-41
2021/12/04 10:37:13;;;;;;;2.45;1.75;;;15.60;51.30;;;;;;1872698;75;21012;-40
2021/12/04 10:39:43;;;;;;;3.17;2.10;;;15.60;50.90;;;;;;1872767;75;21046;-41
2021/12/04 10:42:22;;;;;;;8.40;4.05;;;15.60;51.00;;;;;;1872679;75;21027;-42
2021/12/04 10:44:51;;;;;;;3.25;1.87;;;15.60;49.30;;;;;;1871744;76;21047;-40
2021/12/04 10:47:25;;;;;;;4.87;2.00;;;15.60;48.80;;;;;;1872830;75;21004;-41
2021/12/04 10:55:21;;;;;;;2.37;1.80;;;15.50;49.30;;;;;;1872720;77;21042;-44
2021/12/04 11:01:08;;;;;;;11.48;2.33;;;15.50;49.70;;;;;;1872847;76;21062;-40
2021/12/04 11:26:50;;;;;;;;;;;15.30;52.00;;;;;;1881580;76;21037;-40
2021/12/04 11:35:23;;;;;;;7.90;3.83;;;15.40;51.90;;;;;;1882885;75;21021;-40
2021/12/04 11:37:50;;;;;;;5.95;2.05;;;15.40;51.80;;;;;;1878055;75;21021;-42
2021/12/04 11:40:22;;;;;;;4.97;2.35;;;15.40;51.60;;;;;;1879097;75;21091;-40
2021/12/04 11:42:48;;;;;;;9.20;3.15;;;15.40;51.90;;;;;;1879528;75;21120;-40
2021/12/04 11:45:21;;;;;;;3.40;2.75;;;15.40;52.00;;;;;;1881270;75;21013;-40
2021/12/04 11:47:54;;;;;;;4.67;3.05;;;15.40;52.40;;;;;;1882769;76;21029;-40
2021/12/04 11:50:32;;;;;;;3.55;1.95;;;15.40;52.40;;;;;;1882968;75;21025;-40
2021/12/04 11:53:04;;;;;;;3.27;2.22;;;15.40;52.00;;;;;;1882905;75;21107;-40
2021/12/04 11:55:36;;;;;;;6.55;2.67;;;15.40;51.80;;;;;;1882867;76;21091;-40
2021/12/04 11:58:06;;;;;;;3.33;1.70;;;15.40;51.90;;;;;;1883141;75;21021;-40
2021/12/04 12:00:37;;;;;;;4.55;2.08;;;15.40;51.50;;;;;;1881123;76;21022;-41
2021/12/04 12:03:15;;;;;;;2.70;1.75;;;15.40;51.40;;;;;;1882963;75;21094;-40
2021/12/04 12:05:47;;;;;;;4.42;2.02;;;15.40;51.20;;;;;;1882878;75;21064;-40
2021/12/04 12:08:31;;;;;;;4.15;2.50;;;15.40;50.70;;;;;;1882771;75;21091;-41
2021/12/04 12:11:06;;;;;;;5.60;2.42;;;15.40;51.00;;;;;;1882915;75;21053;-40
2021/12/04 12:13:38;;;;;;;2.90;1.90;;;15.40;50.90;;;;;;1882946;75;21464;-41
2021/12/04 12:16:26;;;;;;;4.75;2.40;;;15.40;50.50;;;;;;1882917;75;21029;-39
2021/12/04 12:19:01;;;;;;;5.72;2.37;;;15.40;50.80;;;;;;1882801;75;21049;-40
2021/12/04 12:21:42;;;;;;;2.65;2.00;;;15.40;51.20;;;;;;1882966;75;21130;-39
2021/12/04 12:32:45;;;;;;;4.92;2.20;;;15.30;51.60;;;;;;1891462;74;21145;-39
2021/12/04 12:37:53;;;;;;;5.78;2.05;;;15.20;52.00;;;;;;1891349;76;21304;-40
2021/12/04 12:40:24;;;;;;;5.22;3.47;;;15.10;52.10;;;;;;1891396;76;21041;-40
2021/12/04 12:42:54;;;;;;;3.20;1.90;;;15.10;52.60;;;;;;1891153;75;21058;-40
2021/12/04 12:45:34;;;;;;;3.58;2.25;;;15.10;52.30;;;;;;1891505;76;21042;-40
2021/12/04 12:48:07;;;;;;;6.17;3.42;;;15.00;52.30;;;;;;1891232;74;21504;-40
2021/12/04 12:50:46;;;;;;;4.00;2.87;;;15.00;52.60;;;;;;1891450;74;21030;-39
2021/12/04 12:53:21;;;;;;;6.05;3.62;;;15.00;53.00;;;;;;1891302;74;21557;-40
2021/12/04 12:55:55;;;;;;;6.67;3.35;;;14.90;52.60;;;;;;1891258;74;21058;-40
2021/12/04 12:58:27;;;;;;;6.08;2.83;;;14.90;52.60;;;;;;1890447;75;21030;-40
2021/12/04 13:12:50;;;;;;;4.05;2.50;;;14.70;52.60;;;;;;1891453;75;21030;-39
2021/12/04 13:15:37;;;;;;;4.35;2.35;;;14.70;53.00;;;;;;1891741;75;21089;-40
2021/12/04 13:18:21;;;;;;;3.17;2.20;;;14.60;53.20;;;;;;1891406;74;21113;-40
2021/12/04 13:20:51;;;;;;;3.42;2.65;;;14.60;53.30;;;;;;1891389;74;21092;-40
2021/12/04 13:23:22;;;;;;;9.13;4.40;;;14.50;53.40;;;;;;1891507;74;21073;-40
2021/12/04 13:25:57;;;;;;;15.35;7.22;;;14.50;53.20;;;;;;1891351;74;21011;-39
2021/12/04 13:28:30;;;;;;;6.70;3.10;;;14.40;53.00;;;;;;1883553;75;21503;-40
2021/12/04 13:31:00;;;;;;;5.75;3.55;;;14.40;53.20;;;;;;1882802;75;21013;-40
2021/12/04 13:33:36;;;;;;;5.67;2.55;;;14.40;53.50;;;;;;1882765;76;21021;-40
2021/12/04 13:36:13;;;;;;;18.95;3.37;;;14.40;53.50;;;;;;1882883;75;21464;-40
2021/12/04 13:38:43;;;;;;;4.85;2.75;;;14.30;53.70;;;;;;1882760;75;21115;-40
2021/12/04 13:41:13;;;;;;;9.28;2.55;;;14.30;53.70;;;;;;1882741;75;21087;-40
2021/12/04 13:43:42;;;;;;;4.22;2.52;;;14.30;53.80;;;;;;1882889;75;21088;-40
2021/12/04 13:46:11;;;;;;;5.92;2.87;;;14.20;54.00;;;;;;1882933;76;21005;-40
2021/12/04 13:48:41;;;;;;;7.58;2.98;;;14.20;53.30;;;;;;1882849;75;21130;-40
2021/12/04 13:51:12;;;;;;;4.95;3.10;;;14.20;53.70;;;;;;1882841;76;21029;-40
2021/12/04 13:53:44;;;;;;;4.42;2.20;;;14.10;53.50;;;;;;1882961;75;21083;-40
2021/12/04 13:56:15;;;;;;;6.95;2.60;;;14.10;53.20;;;;;;1883075;75;21033;-40
2021/12/04 13:58:54;;;;;;;5.22;2.20;;;14.10;53.30;;;;;;1882918;76;21017;-40
2021/12/04 14:01:25;;;;;;;3.25;2.10;;;14.10;53.20;;;;;;1882637;75;20998;-41
2021/12/04 14:04:03;;;;;;;2.83;2.58;;;14.10;53.20;;;;;;1882817;75;21017;-39
2021/12/04 14:06:32;;;;;;;10.72;3.02;;;14.10;53.20;;;;;;1882900;75;21088;-42
2021/12/04 14:09:06;;;;;;;5.80;2.30;;;14.00;53.30;;;;;;1882798;75;21001;-40
2021/12/04 14:11:38;;;;;;;7.75;2.52;;;14.00;53.30;;;;;;1883123;75;21037;-40
2021/12/04 14:14:22;;;;;;;5.33;2.20;;;14.00;53.50;;;;;;1882794;76;21029;-40
2021/12/04 14:16:53;;;;;;;6.40;2.65;;;14.00;53.90;;;;;;1882938;75;21068;-40
2021/12/04 14:19:28;;;;;;;5.17;2.55;;;13.90;54.10;;;;;;1882876;75;21525;-40
2021/12/04 14:22:12;;;;;;;5.40;2.33;;;13.90;53.80;;;;;;1883058;76;21538;-40
2021/12/04 14:24:44;;;;;;;3.47;2.40;;;13.90;54.00;;;;;;1882902;75;21069;-40
2021/12/04 14:27:22;;;;;;;3.05;2.33;;;13.80;54.30;;;;;;1884738;75;21128;-40
2021/12/04 14:29:54;;;;;;;5.47;2.30;;;13.90;54.40;;;;;;1891380;74;21053;-40
2021/12/04 14:32:26;;;;;;;4.67;3.17;;;13.80;54.30;;;;;;1891459;75;21116;-40
2021/12/04 14:35:07;;;;;;;6.97;2.83;;;13.90;54.40;;;;;;1891552;76;21030;-40
2021/12/04 14:37:40;;;;;;;6.30;2.75;;;13.80;54.60;;;;;;1891567;76;21476;-42
2021/12/04 14:40:12;;;;;;;9.75;3.02;;;13.80;54.70;;;;;;1891403;75;21081;-42
2021/12/04 14:42:42;;;;;;;6.60;2.87;;;13.80;54.70;;;;;;1891548;76;21096;-42
2021/12/04 14:45:14;;;;;;;4.60;2.10;;;13.80;54.80;;;;;;1891343;75;21053;-40
2021/12/04 14:47:49;;;;;;;4.30;2.40;;;13.80;55.20;;;;;;1891487;76;21104;-40
2021/12/04 14:50:21;;;;;;;6.50;2.80;;;13.80;55.20;;;;;;1891626;74;21045;-40
2021/12/04 14:52:52;;;;;;;6.10;2.77;;;13.70;55.20;;;;;;1891431;74;21029;-40
2021/12/04 14:55:30;;;;;;;5.95;2.98;;;13.70;55.30;;;;;;1891390;76;21143;-41
2021/12/04 14:58:01;;;;;;;3.83;2.80;;;13.70;55.50;;;;;;1891641;75;21042;-41
2021/12/04 15:00:33;;;;;;;5.17;2.52;;;13.70;55.50;;;;;;1891411;75;21194;-40
2021/12/04 15:03:07;;;;;;;6.05;2.58;;;13.70;55.50;;;;;;1891490;74;21042;-41
2021/12/04 15:05:41;;;;;;;5.50;3.58;;;13.70;55.60;;;;;;1891483;76;21003;-41
2021/12/04 15:08:14;;;;;;;6.17;2.72;;;13.70;55.60;;;;;;1891112;74;21062;-41
2021/12/04 15:10:44;;;;;;;4.53;2.20;;;13.60;55.60;;;;;;1891474;75;21038;-40
2021/12/04 15:13:19;;;;;;;9.35;3.95;;;13.70;55.80;;;;;;1891391;75;21112;-40
2021/12/04 15:15:51;;;;;;;4.40;2.20;;;13.60;55.70;;;;;;1891473;74;21050;-41
2021/12/04 15:18:24;;;;;;;4.47;1.92;;;13.60;55.70;;;;;;1891384;74;21503;-40
2021/12/04 15:20:59;;;;;;;3.83;2.37;;;13.60;55.70;;;;;;1891162;75;21035;-41
2021/12/04 15:23:31;;;;;;;6.47;2.15;;;13.60;55.70;;;;;;1891386;74;21057;-40
2021/12/04 15:26:03;;;;;;;2.87;2.10;;;13.60;55.60;;;;;;1891397;76;21006;-40
2021/12/04 15:28:33;;;;;;;3.52;1.85;;;13.60;55.80;;;;;;1886210;75;21131;-40
2021/12/04 15:31:04;;;;;;;3.62;1.70;;;13.60;55.70;;;;;;1883003;75;21006;-40
2021/12/04 15:33:38;;;;;;;2.15;1.95;;;13.50;55.80;;;;;;1882769;76;21026;-40
2021/12/04 15:36:11;;;;;;;4.25;2.10;;;13.50;55.90;;;;;;1882885;76;21022;-40
2021/12/04 15:38:51;;;;;;;4.75;2.00;;;13.50;55.90;;;;;;1882818;76;21072;-41
2021/12/04 15:46:59;;;;;;;4.60;1.92;;;13.40;56.10;;;;;;1832261;76;21038;-41
2021/12/04 15:49:46;;;;;;;8.45;3.02;;;13.40;56.10;;;;;;1876680;75;21088;-40
2021/12/04 15:54:59;;;;;;;3.87;2.27;;;13.40;56.10;;;;;;1882661;75;21041;-40
2021/12/04 15:57:24;;;;;;;5.25;1.82;;;13.40;55.70;;;;;;1881819;76;21136;-40
2021/12/04 15:59:53;;;;;;;18.17;3.67;;;13.40;55.60;;;;;;1882753;75;21005;-40
2021/12/04 16:02:30;;;;;;;11.12;3.15;;;13.40;55.80;;;;;;1882746;75;21135;-41
2021/12/04 16:04:57;;;;;;;4.47;2.30;;;13.40;55.70;;;;;;1881756;76;21053;-41
2021/12/04 16:07:28;;;;;;;8.33;2.52;;;13.40;56.00;;;;;;1880626;75;21091;-40